Time;durP1;ratioP1;P1;durP2;ratioP2;P2;SDS_P1;SDS_P2;PMS_P1;PMS_P2;Temp;Humidity;BMP_temperature;BMP_pressure;BME280_temperature;BME280_humidity;BME280_pressure;Samples;Min_cycle;Max_cycle;Signal;HPM_P1;HPM_P2
2022/08/28 00:00:23;;;;;;;4.65;2.10;;;15.70;99.90;;;;;;5053789;28;20033;-38
2022/08/28 00:02:50;;;;;;;15.15;2.85;;;15.70;99.90;;;;;;5062393;28;20452;-37
2022/08/28 00:05:19;;;;;;;8.48;2.60;;;15.70;99.90;;;;;;5060140;28;20055;-36
2022/08/28 00:07:45;;;;;;;8.07;2.20;;;15.70;99.90;;;;;;5059322;28;20476;-34
2022/08/28 00:10:14;;;;;;;9.63;2.33;;;15.70;99.90;;;;;;5051730;28;20086;-39
2022/08/28 00:12:40;;;;;;;4.95;2.20;;;15.70;99.90;;;;;;5063581;28;20442;-37
2022/08/28 00:15:12;;;;;;;6.30;2.08;;;15.70;99.90;;;;;;5065315;28;20104;-38
2022/08/28 00:17:38;;;;;;;10.98;1.95;;;15.70;99.90;;;;;;5061239;28;20032;-34
2022/08/28 00:20:08;;;;;;;12.18;2.17;;;15.70;99.90;;;;;;5059202;28;20055;-35
2022/08/28 00:22:35;;;;;;;11.90;2.78;;;15.70;99.90;;;;;;5070185;28;20541;-39
2022/08/28 00:25:00;;;;;;;4.78;1.98;;;15.70;99.90;;;;;;5061411;28;20017;-56
2022/08/28 00:30:10;;;;;;;3.08;1.48;;;15.70;99.90;;;;;;5060120;28;20062;-32
2022/08/28 00:32:36;;;;;;;7.55;2.10;;;15.70;99.90;;;;;;5063496;28;20040;-39
2022/08/28 00:35:02;;;;;;;12.38;2.05;;;15.70;99.90;;;;;;5060467;28;20016;-39
2022/08/28 00:37:28;;;;;;;6.32;2.20;;;15.60;99.90;;;;;;5053377;28;20044;-40
2022/08/28 00:39:54;;;;;;;4.38;2.25;;;15.60;99.90;;;;;;5057123;28;20572;-38
2022/08/28 00:42:20;;;;;;;4.35;2.30;;;15.60;99.90;;;;;;5051672;28;20112;-38
2022/08/28 00:44:46;;;;;;;6.28;1.80;;;15.60;99.90;;;;;;5064846;28;20021;-34
2022/08/28 00:47:11;;;;;;;4.82;2.50;;;15.60;99.90;;;;;;5066999;28;20051;-43
2022/08/28 00:49:46;;;;;;;8.10;2.78;;;15.60;99.90;;;;;;5064852;28;20021;-38
2022/08/28 00:52:14;;;;;;;9.50;2.10;;;15.60;99.90;;;;;;5063420;28;20020;-36
2022/08/28 00:54:53;;;;;;;1.50;1.30;;;15.60;99.90;;;;;;5062151;28;20048;-33
2022/08/28 00:57:23;;;;;;;7.63;2.42;;;15.60;99.90;;;;;;5059500;28;20570;-34
2022/08/28 00:59:49;;;;;;;5.10;1.55;;;15.60;99.90;;;;;;5065364;28;20024;-39
2022/08/28 01:02:14;;;;;;;6.93;1.75;;;15.50;99.90;;;;;;5059505;28;20037;-32
2022/08/28 01:04:40;;;;;;;4.18;1.83;;;15.50;99.90;;;;;;5061055;28;20025;-37
2022/08/28 01:07:09;;;;;;;8.32;1.75;;;15.50;99.90;;;;;;5057051;28;20473;-42
2022/08/28 01:09:40;;;;;;;5.10;1.90;;;15.50;99.90;;;;;;5063603;28;20071;-40
2022/08/28 01:12:10;;;;;;;6.22;1.77;;;15.50;99.90;;;;;;5061065;28;20100;-39
2022/08/28 01:14:39;;;;;;;4.32;1.60;;;15.50;99.90;;;;;;5058636;28;20438;-37
2022/08/28 01:17:06;;;;;;;5.82;1.63;;;15.50;99.90;;;;;;5066037;28;20020;-40
2022/08/28 01:19:42;;;;;;;6.82;1.85;;;15.50;99.90;;;;;;5065060;28;20500;-39
2022/08/28 01:22:16;;;;;;;6.47;2.03;;;15.50;99.90;;;;;;5069518;28;20488;-40
2022/08/28 01:24:44;;;;;;;6.28;1.70;;;15.50;99.90;;;;;;5073945;28;20017;-42
2022/08/28 01:27:09;;;;;;;;;;;15.40;99.90;;;;;;5061213;28;20044;-39
2022/08/28 01:32:42;;;;;;;8.20;1.90;;;15.30;99.90;;;;;;5068533;28;20071;-40
2022/08/28 01:35:10;;;;;;;2.80;1.52;;;15.20;99.90;;;;;;5070434;28;20476;-39
2022/08/28 01:37:36;;;;;;;4.93;1.48;;;15.20;99.90;;;;;;5061899;28;20029;-39
2022/08/28 01:40:05;;;;;;;3.65;1.65;;;15.10;99.90;;;;;;5069569;28;20567;-39
2022/08/28 01:42:39;;;;;;;9.95;2.20;;;15.10;99.90;;;;;;5064545;28;20050;-42
2022/08/28 01:45:10;;;;;;;5.88;1.50;;;15.10;99.90;;;;;;5067789;28;20024;-37
2022/08/28 01:47:58;;;;;;;7.15;1.42;;;15.10;99.90;;;;;;5063275;28;20472;-39
2022/08/28 01:50:23;;;;;;;15.75;1.90;;;15.10;99.90;;;;;;5066862;28;20108;-44
2022/08/28 01:52:49;;;;;;;5.35;1.92;;;15.10;99.90;;;;;;5063442;28;20453;-39
2022/08/28 01:55:15;;;;;;;4.03;1.45;;;15.10;99.90;;;;;;5064937;28;20119;-42
2022/08/28 01:57:46;;;;;;;1.60;1.50;;;15.00;99.90;;;;;;5064405;28;20050;-38
2022/08/28 02:00:13;;;;;;;10.52;3.67;;;15.00;99.90;;;;;;5065648;28;20028;-40
2022/08/28 02:02:39;;;;;;;6.88;2.75;;;15.00;99.90;;;;;;5062477;28;20531;-38
2022/08/28 02:05:05;;;;;;;4.28;1.75;;;15.00;99.90;;;;;;5060832;28;20087;-38
2022/08/28 02:07:31;;;;;;;5.43;1.50;;;15.00;99.90;;;;;;5063558;28;20035;-40
2022/08/28 02:09:56;;;;;;;6.05;1.50;;;15.00;99.90;;;;;;5070808;28;20422;-38
2022/08/28 02:12:22;;;;;;;4.57;1.73;;;15.00;99.90;;;;;;5068652;28;20059;-32
2022/08/28 02:14:47;;;;;;;4.65;1.50;;;15.00;99.90;;;;;;5070674;28;20100;-36
2022/08/28 02:17:13;;;;;;;3.78;1.10;;;15.00;99.90;;;;;;5071265;28;20025;-32
2022/08/28 02:19:39;;;;;;;2.70;1.20;;;14.90;99.90;;;;;;5068443;28;20024;-32
2022/08/28 02:22:07;;;;;;;5.85;1.58;;;14.90;99.90;;;;;;5069976;28;21084;-33
2022/08/28 02:24:33;;;;;;;;;;;14.80;99.90;;;;;;5073476;28;20028;-31
2022/08/28 02:26:58;;;;;;;3.35;1.80;;;14.80;99.90;;;;;;5063877;28;20336;-36
2022/08/28 02:29:25;;;;;;;3.38;1.60;;;14.80;99.90;;;;;;5063562;28;20028;-39
2022/08/28 02:31:51;;;;;;;6.88;1.42;;;14.70;99.90;;;;;;5064689;28;20036;-42
2022/08/28 02:34:17;;;;;;;6.78;1.55;;;14.70;99.90;;;;;;5066150;28;20369;-37
2022/08/28 02:36:42;;;;;;;8.68;2.03;;;14.70;99.90;;;;;;5057828;28;20031;-40
2022/08/28 02:39:09;;;;;;;7.25;1.70;;;14.60;99.90;;;;;;5059611;28;20485;-59
2022/08/28 02:41:34;;;;;;;3.08;1.60;;;14.60;99.90;;;;;;5068070;28;20124;-41
2022/08/28 02:44:01;;;;;;;2.92;1.35;;;14.60;99.90;;;;;;5055801;28;20143;-39
2022/08/28 02:46:26;;;;;;;1.92;0.95;;;14.70;99.90;;;;;;5059584;28;20063;-41
2022/08/28 02:48:52;;;;;;;4.55;1.27;;;14.70;99.90;;;;;;5061752;28;20048;-40
2022/08/28 02:51:18;;;;;;;4.40;1.52;;;14.60;99.90;;;;;;5068655;28;20032;-40
2022/08/28 02:53:44;;;;;;;4.38;1.40;;;14.60;99.90;;;;;;5064601;28;20460;-40
2022/08/28 02:56:11;;;;;;;4.05;1.40;;;14.60;99.90;;;;;;5060811;28;20137;-44
2022/08/28 02:58:38;;;;;;;10.27;2.20;;;14.60;99.90;;;;;;5062392;28;20519;-37
2022/08/28 03:01:06;;;;;;;5.10;1.40;;;14.50;99.90;;;;;;5062605;28;20060;-38
2022/08/28 03:03:32;;;;;;;;;;;14.50;99.90;;;;;;5063800;28;20017;-42
2022/08/28 03:06:00;;;;;;;2.60;1.27;;;14.40;99.90;;;;;;5060991;28;19954;-39
2022/08/28 03:08:27;;;;;;;7.65;1.77;;;14.40;99.90;;;;;;5061319;28;20029;-40
2022/08/28 03:10:52;;;;;;;4.70;1.33;;;14.40;99.90;;;;;;5067492;28;20476;-65
2022/08/28 03:13:18;;;;;;;5.95;1.45;;;14.40;99.90;;;;;;5064268;28;20291;-38
2022/08/28 03:15:45;;;;;;;5.68;1.40;;;14.40;99.90;;;;;;5063018;28;20016;-38
2022/08/28 03:18:12;;;;;;;4.90;1.48;;;14.40;99.90;;;;;;5059083;28;20492;-40
2022/08/28 03:20:38;;;;;;;2.30;2.10;;;14.40;99.90;;;;;;5056733;28;20036;-38
2022/08/28 03:25:49;;;;;;;6.15;1.38;;;14.40;99.90;;;;;;5058756;28;20078;-37
2022/08/28 03:28:14;;;;;;;7.32;1.60;;;14.30;99.90;;;;;;5063978;28;20016;-59
2022/08/28 03:30:40;;;;;;;3.60;1.67;;;14.30;99.90;;;;;;5055524;28;20059;-35
2022/08/28 03:33:06;;;;;;;3.28;1.20;;;14.30;99.90;;;;;;5059960;28;20536;-32
2022/08/28 03:35:31;;;;;;;7.85;1.52;;;14.30;99.90;;;;;;5057874;28;20032;-38
2022/08/28 03:37:57;;;;;;;3.50;1.58;;;14.30;99.90;;;;;;5063275;28;20017;-32
2022/08/28 03:40:23;;;;;;;4.95;1.90;;;14.30;99.90;;;;;;5065823;28;20069;-34
2022/08/28 03:42:49;;;;;;;4.90;1.27;;;14.20;99.90;;;;;;5060836;28;20484;-36
2022/08/28 03:45:15;;;;;;;4.95;1.75;;;14.30;99.90;;;;;;5062096;28;20017;-37
2022/08/28 03:47:41;;;;;;;4.43;1.48;;;14.20;99.90;;;;;;5065066;28;20183;-37
2022/08/28 03:50:12;;;;;;;9.68;1.90;;;14.20;99.90;;;;;;5066018;28;20179;-39
2022/08/28 03:52:39;;;;;;;3.03;1.50;;;14.20;99.90;;;;;;5066360;28;20120;-39
2022/08/28 03:55:07;;;;;;;2.83;1.30;;;14.30;99.90;;;;;;5071797;28;20483;-39
2022/08/28 03:57:34;;;;;;;4.47;1.67;;;14.20;99.90;;;;;;5063832;28;20044;-38
2022/08/28 04:00:02;;;;;;;6.97;2.08;;;14.20;99.90;;;;;;5061959;28;20020;-41
2022/08/28 04:02:27;;;;;;;5.95;2.15;;;14.20;99.90;;;;;;5059170;28;20075;-39
2022/08/28 04:04:53;;;;;;;5.75;2.05;;;14.20;99.90;;;;;;5051951;28;20017;-37
2022/08/28 04:07:19;;;;;;;5.53;1.60;;;14.20;99.90;;;;;;5067754;28;20021;-41
2022/08/28 04:09:45;;;;;;;5.50;1.25;;;14.20;99.90;;;;;;5069334;28;20021;-64
2022/08/28 04:12:11;;;;;;;3.28;1.90;;;14.20;99.90;;;;;;5060162;28;20021;-50
2022/08/28 04:14:37;;;;;;;3.42;1.60;;;14.20;99.90;;;;;;5066088;28;20028;-38
2022/08/28 04:17:04;;;;;;;4.85;2.72;;;14.10;99.90;;;;;;5067571;28;20056;-39
2022/08/28 04:19:30;;;;;;;3.92;2.22;;;14.10;99.90;;;;;;5064999;28;20029;-38
2022/08/28 04:21:55;;;;;;;3.95;1.40;;;14.10;99.90;;;;;;5061891;28;20494;-33
2022/08/28 04:24:21;;;;;;;8.65;1.92;;;14.10;99.90;;;;;;5067460;28;20029;-35
2022/08/28 04:26:47;;;;;;;8.70;2.15;;;14.10;99.90;;;;;;5061450;28;20151;-37
2022/08/28 04:29:13;;;;;;;4.88;1.88;;;14.10;99.90;;;;;;5076124;28;20023;-35
2022/08/28 04:31:38;;;;;;;4.05;1.48;;;14.10;99.90;;;;;;5055349;28;20029;-35
2022/08/28 04:34:08;;;;;;;6.53;2.25;;;14.00;99.90;;;;;;5064179;28;20081;-38
2022/08/28 04:36:34;;;;;;;3.92;1.77;;;14.10;99.90;;;;;;5056232;28;20024;-33
2022/08/28 04:39:01;;;;;;;2.47;1.35;;;14.10;99.90;;;;;;5053392;28;20033;-39
2022/08/28 04:41:28;;;;;;;5.60;1.40;;;14.10;99.90;;;;;;5059676;28;20033;-34
2022/08/28 04:43:56;;;;;;;12.27;2.58;;;14.10;99.90;;;;;;5062833;28;20025;-41
2022/08/28 04:46:22;;;;;;;5.78;1.83;;;14.00;99.90;;;;;;5055186;28;20047;-41
2022/08/28 04:48:48;;;;;;;4.30;2.30;;;14.00;99.90;;;;;;5063921;28;20067;-37
2022/08/28 04:51:14;;;;;;;4.82;1.80;;;14.00;99.90;;;;;;5058409;28;20055;-45
2022/08/28 04:53:40;;;;;;;13.52;2.25;;;14.00;99.90;;;;;;5059007;28;20025;-38
2022/08/28 04:56:10;;;;;;;4.53;1.58;;;14.00;99.90;;;;;;5069091;28;20056;-32
2022/08/28 04:58:37;;;;;;;3.53;1.48;;;14.00;99.90;;;;;;5061963;28;20054;-33
2022/08/28 05:01:10;;;;;;;10.60;1.52;;;14.00;99.90;;;;;;5076806;28;20527;-34
2022/08/28 05:03:36;;;;;;;4.72;1.60;;;14.00;99.90;;;;;;5062211;28;20098;-36
2022/08/28 05:06:02;;;;;;;7.53;2.25;;;14.00;99.90;;;;;;5062384;28;20024;-37
2022/08/28 05:08:28;;;;;;;4.88;2.10;;;14.00;99.90;;;;;;5065324;28;20568;-35
2022/08/28 05:10:54;;;;;;;3.55;1.83;;;14.00;99.90;;;;;;5063184;28;20100;-39
2022/08/28 05:13:22;;;;;;;10.60;2.15;;;14.00;99.90;;;;;;5063877;28;20031;-41
2022/08/28 05:15:49;;;;;;;7.20;1.48;;;14.00;99.90;;;;;;5071930;28;20100;-38
2022/08/28 05:18:18;;;;;;;3.33;1.10;;;14.00;99.90;;;;;;5063244;28;20123;-43
2022/08/28 05:20:46;;;;;;;3.67;1.60;;;14.00;99.90;;;;;;5064821;28;20027;-40
2022/08/28 05:23:13;;;;;;;5.53;2.08;;;14.00;99.90;;;;;;5055323;28;20911;-35
2022/08/28 05:25:42;;;;;;;5.20;1.30;;;14.10;99.90;;;;;;5072180;28;20492;-35
2022/08/28 05:28:12;;;;;;;6.50;1.67;;;14.10;99.90;;;;;;5057949;28;20057;-34
2022/08/28 05:30:39;;;;;;;3.40;1.45;;;14.20;99.90;;;;;;5065924;28;20021;-35
2022/08/28 05:33:07;;;;;;;2.08;1.42;;;14.20;99.90;;;;;;5062271;28;20484;-35
2022/08/28 05:35:34;;;;;;;;;;;14.30;99.90;;;;;;5065981;28;20029;-40
2022/08/28 05:37:59;;;;;;;3.75;1.45;;;14.40;99.90;;;;;;5064637;28;19939;-40
2022/08/28 05:40:25;;;;;;;7.53;2.08;;;14.40;99.90;;;;;;5067110;28;20476;-38
2022/08/28 05:42:51;;;;;;;4.00;1.20;;;14.50;99.90;;;;;;5063674;28;20116;-41
2022/08/28 05:45:17;;;;;;;5.88;1.67;;;14.60;99.90;;;;;;5071336;28;20027;-37
2022/08/28 05:47:46;;;;;;;9.90;1.92;;;14.70;99.90;;;;;;5062346;28;20112;-36
2022/08/28 05:50:12;;;;;;;2.67;1.65;;;14.70;99.90;;;;;;5067262;28;20054;-40
2022/08/28 05:52:39;;;;;;;6.43;1.77;;;14.80;99.90;;;;;;5061629;28;20060;-33
2022/08/28 05:55:06;;;;;;;3.95;1.25;;;15.00;99.90;;;;;;5065717;28;20032;-32
2022/08/28 05:57:32;;;;;;;3.10;1.60;;;15.10;99.90;;;;;;5066243;28;20438;-35
2022/08/28 05:59:58;;;;;;;7.25;1.73;;;15.20;99.90;;;;;;5055725;28;20032;-36
2022/08/28 06:02:23;;;;;;;12.02;1.70;;;15.30;99.90;;;;;;5061199;28;20669;-36
2022/08/28 06:04:50;;;;;;;13.05;1.33;;;15.40;99.90;;;;;;5065159;28;20028;-36
2022/08/28 06:07:15;;;;;;;6.13;1.90;;;15.60;99.90;;;;;;5069869;28;20073;-35
2022/08/28 06:09:41;;;;;;;5.78;1.63;;;15.60;99.90;;;;;;5070722;28;20024;-41
2022/08/28 06:12:07;;;;;;;4.63;1.33;;;15.80;99.90;;;;;;5069133;28;20373;-35
2022/08/28 06:14:33;;;;;;;6.43;1.60;;;15.80;99.90;;;;;;5070411;28;20025;-40
2022/08/28 06:17:00;;;;;;;8.07;1.98;;;16.00;99.90;;;;;;5069336;28;20027;-33
2022/08/28 06:19:28;;;;;;;6.72;1.50;;;16.10;99.90;;;;;;5073044;28;20541;-40
2022/08/28 06:21:56;;;;;;;4.80;1.40;;;16.20;99.90;;;;;;5066898;28;20016;-38
2022/08/28 06:24:22;;;;;;;8.05;1.73;;;16.30;99.90;;;;;;5070357;28;20066;-55
2022/08/28 06:26:48;;;;;;;3.50;1.70;;;16.40;99.90;;;;;;5068886;28;20035;-41
2022/08/28 06:29:17;;;;;;;8.23;1.65;;;16.60;99.90;;;;;;5070007;28;20021;-39
2022/08/28 06:31:43;;;;;;;7.75;1.58;;;16.80;99.90;;;;;;5070158;28;20384;-39
2022/08/28 06:34:08;;;;;;;3.17;1.30;;;16.90;99.90;;;;;;5065926;28;20099;-40
2022/08/28 06:36:40;;;;;;;6.50;1.30;;;17.10;99.90;;;;;;5068282;28;20067;-41
2022/08/28 06:39:08;;;;;;;2.95;1.40;;;17.20;99.90;;;;;;5068290;28;20531;-38
2022/08/28 06:41:38;;;;;;;;;;;17.30;99.90;;;;;;5069304;28;20027;-39
2022/08/28 06:44:04;;;;;;;6.65;1.27;;;17.40;99.90;;;;;;5065723;28;20002;-39
2022/08/28 06:46:32;;;;;;;3.35;1.25;;;17.50;99.90;;;;;;5064209;28;20100;-40
2022/08/28 06:48:57;;;;;;;5.80;0.98;;;17.60;99.90;;;;;;5069622;28;20059;-36
2022/08/28 06:51:23;;;;;;;4.50;2.40;;;17.70;99.90;;;;;;5068095;28;20437;-38
2022/08/28 06:53:48;;;;;;;10.10;1.45;;;17.90;99.90;;;;;;5061239;28;20484;-37
2022/08/28 06:56:18;;;;;;;5.88;2.53;;;17.80;99.90;;;;;;5065280;28;20036;-37
2022/08/28 06:58:46;;;;;;;4.05;1.98;;;17.70;99.90;;;;;;5069998;28;20044;-39
2022/08/28 07:01:17;;;;;;;;;;;17.80;99.90;;;;;;5067006;28;20031;-38
2022/08/28 07:03:44;;;;;;;5.88;1.42;;;17.90;99.90;;;;;;5068462;28;20482;-40
2022/08/28 07:06:12;;;;;;;9.13;1.20;;;18.00;99.90;;;;;;5068373;28;20718;-40
2022/08/28 07:08:38;;;;;;;;;;;18.10;99.90;;;;;;5071335;28;20021;-41
2022/08/28 07:11:20;;;;;;;5.45;1.00;;;18.20;99.90;;;;;;5065488;28;20015;-38
2022/08/28 07:13:47;;;;;;;7.00;1.33;;;18.30;99.90;;;;;;5069724;28;20439;-40
2022/08/28 07:16:16;;;;;;;11.88;1.52;;;18.30;99.90;;;;;;5067682;28;20030;-39
2022/08/28 07:18:42;;;;;;;10.13;1.08;;;18.30;99.90;;;;;;5064720;28;20040;-53
2022/08/28 07:21:08;;;;;;;3.33;1.07;;;18.30;99.90;;;;;;5065580;28;20070;-44
2022/08/28 07:23:36;;;;;;;8.35;1.85;;;18.30;99.90;;;;;;5071325;28;20074;-39
2022/08/28 07:26:04;;;;;;;6.68;1.25;;;18.40;99.90;;;;;;5069670;28;20060;-40
2022/08/28 07:28:30;;;;;;;1.80;0.95;;;18.50;99.90;;;;;;5068062;28;20021;-38
2022/08/28 07:30:58;;;;;;;7.35;2.28;;;18.60;99.90;;;;;;5066902;28;20108;-40
2022/08/28 07:33:25;;;;;;;6.35;1.45;;;18.50;99.90;;;;;;5065888;28;20024;-39
2022/08/28 07:35:51;;;;;;;6.95;1.10;;;18.50;99.90;;;;;;5062839;28;20024;-40
2022/08/28 07:38:16;;;;;;;3.55;1.08;;;18.50;99.90;;;;;;5067269;28;20017;-39
2022/08/28 07:40:42;;;;;;;3.65;1.10;;;18.60;99.90;;;;;;5065973;28;20069;-41
2022/08/28 07:46:00;;;;;;;5.85;1.17;;;18.80;99.90;;;;;;5062812;28;20029;-49
2022/08/28 07:48:26;;;;;;;6.03;1.42;;;18.80;99.90;;;;;;5072913;28;20515;-37
2022/08/28 07:53:36;;;;;;;5.28;1.30;;;18.80;99.90;;;;;;5066643;28;20066;-39
2022/08/28 07:56:02;;;;;;;2.97;0.98;;;18.90;99.90;;;;;;5069352;28;20558;-42
2022/08/28 07:58:27;;;;;;;5.13;1.38;;;19.10;99.90;;;;;;5053942;28;20051;-37
2022/08/28 08:00:54;;;;;;;5.82;1.50;;;19.10;99.90;;;;;;5057262;28;20049;-32
2022/08/28 08:03:21;;;;;;;6.53;2.10;;;19.20;99.90;;;;;;5062288;28;20461;-42
2022/08/28 08:06:00;;;;;;;5.55;1.00;;;19.20;99.90;;;;;;5067267;28;20017;-39
2022/08/28 08:08:26;;;;;;;4.75;0.82;;;19.30;99.90;;;;;;5064169;28;20468;-38
2022/08/28 08:11:08;;;;;;;3.53;1.27;;;19.30;99.90;;;;;;5059895;28;20020;-36
2022/08/28 08:13:53;;;;;;;3.58;0.95;;;19.40;99.90;;;;;;5064538;28;20024;-35
2022/08/28 08:16:21;;;;;;;2.92;1.25;;;19.60;99.90;;;;;;5056979;28;20389;-31
2022/08/28 08:18:48;;;;;;;1.73;0.68;;;19.60;99.90;;;;;;5062746;28;20017;-33
2022/08/28 08:21:16;;;;;;;7.03;1.10;;;19.80;99.90;;;;;;5055495;28;20025;-32
2022/08/28 08:23:42;;;;;;;3.63;1.00;;;19.80;99.90;;;;;;5057282;28;20103;-40
2022/08/28 08:26:17;;;;;;;4.07;1.20;;;19.70;99.90;;;;;;5070864;28;20024;-37
2022/08/28 08:28:44;;;;;;;3.22;1.17;;;19.70;99.90;;;;;;5051393;28;20481;-38
2022/08/28 08:31:17;;;;;;;2.15;1.08;;;19.70;99.90;;;;;;5054668;28;20031;-49
2022/08/28 08:33:46;;;;;;;4.82;1.13;;;19.70;99.90;;;;;;5074854;28;20024;-60
2022/08/28 08:36:14;;;;;;;4.72;0.90;;;19.70;99.90;;;;;;5059647;28;20025;-38
2022/08/28 08:38:40;;;;;;;5.88;1.17;;;19.70;99.90;;;;;;5061651;28;20460;-39
2022/08/28 08:41:46;;;;;;;2.00;0.88;;;19.80;99.90;;;;;;5055348;28;20091;-38
2022/08/28 08:44:40;;;;;;;1.17;0.82;;;20.10;99.90;;;;;;5063293;28;20099;-39
2022/08/28 08:47:11;;;;;;;5.45;0.98;;;20.20;99.90;;;;;;5062262;28;20392;-40
2022/08/28 08:49:40;;;;;;;2.22;1.00;;;20.10;99.90;;;;;;5052988;28;20579;-36
2022/08/28 08:52:06;;;;;;;1.35;0.80;;;20.00;99.90;;;;;;5065063;28;20531;-36
2022/08/28 08:54:31;;;;;;;2.58;0.85;;;19.80;99.90;;;;;;5064437;28;20112;-40
2022/08/28 08:57:13;;;;;;;3.83;1.00;;;19.70;99.90;;;;;;5070487;28;20035;-49
2022/08/28 08:59:39;;;;;;;2.95;0.85;;;19.90;99.90;;;;;;5065929;28;20020;-37
2022/08/28 09:02:13;;;;;;;3.13;0.88;;;20.20;99.90;;;;;;5052241;28;20123;-39
2022/08/28 09:04:47;;;;;;;2.33;1.10;;;20.40;99.90;;;;;;5068064;28;20093;-35
2022/08/28 09:07:19;;;;;;;1.70;0.60;;;20.60;99.90;;;;;;5064132;28;20063;-37
2022/08/28 09:09:51;;;;;;;3.05;0.65;;;20.80;99.90;;;;;;5065200;28;20020;-38
2022/08/28 09:12:24;;;;;;;1.63;0.75;;;20.90;99.90;;;;;;5056506;28;20500;-39
2022/08/28 09:15:11;;;;;;;1.00;0.90;;;20.90;99.90;;;;;;5068996;28;20032;-36
2022/08/28 09:17:46;;;;;;;1.10;0.75;;;20.90;99.90;;;;;;5065744;28;20048;-38
2022/08/28 09:20:17;;;;;;;3.80;0.95;;;21.10;99.90;;;;;;5065780;28;20399;-39
2022/08/28 09:22:45;;;;;;;4.20;1.05;;;21.10;99.90;;;;;;5060290;28;20568;-39
2022/08/28 09:25:32;;;;;;;2.13;0.70;;;21.10;99.90;;;;;;5065261;28;20490;-39
2022/08/28 09:28:07;;;;;;;3.88;1.20;;;21.00;99.90;;;;;;5067159;28;20449;-39
2022/08/28 09:30:35;;;;;;;1.88;0.80;;;21.20;99.90;;;;;;5069408;28;20023;-40
2022/08/28 09:33:00;;;;;;;;;;;21.60;99.90;;;;;;5057396;28;20037;-38
2022/08/28 09:35:28;;;;;;;2.95;0.70;;;21.70;99.90;;;;;;5053619;28;19909;-35
2022/08/28 09:37:56;;;;;;;8.32;1.75;;;21.50;99.90;;;;;;5064067;28;20366;-36
2022/08/28 09:43:25;;;;;;;4.90;1.30;;;20.90;99.90;;;;;;5057422;28;20044;-38
2022/08/28 09:46:19;;;;;;;5.03;0.85;;;20.60;99.90;;;;;;5057543;28;20475;-37
2022/08/28 09:48:51;;;;;;;2.35;0.93;;;20.40;99.90;;;;;;5066442;28;20469;-37
2022/08/28 09:51:19;;;;;;;2.47;0.90;;;20.30;99.90;;;;;;5071511;28;20034;-47
2022/08/28 09:53:51;;;;;;;1.83;0.70;;;20.60;99.90;;;;;;5059980;28;20118;-37
2022/08/28 09:56:32;;;;;;;1.85;0.70;;;20.80;99.90;;;;;;5064658;28;20024;-38
2022/08/28 09:59:11;;;;;;;4.43;1.00;;;20.90;99.90;;;;;;5067624;28;20041;-37
2022/08/28 10:01:37;;;;;;;2.92;0.65;;;20.90;99.90;;;;;;5069403;28;20105;-52
2022/08/28 10:04:30;;;;;;;1.70;1.00;;;21.10;99.90;;;;;;5068620;28;20503;-43
2022/08/28 10:07:17;;;;;;;6.78;0.82;;;21.10;99.90;;;;;;5066448;28;20033;-38
2022/08/28 10:09:57;;;;;;;2.83;0.60;;;21.50;99.90;;;;;;5063007;28;20408;-36
2022/08/28 10:12:41;;;;;;;6.13;0.82;;;21.90;99.90;;;;;;5062069;28;20504;-39
2022/08/28 10:15:28;;;;;;;5.18;1.13;;;21.90;99.50;;;;;;5070427;28;20032;-39
2022/08/28 10:18:00;;;;;;;2.75;0.80;;;21.80;99.60;;;;;;5062752;28;20035;-37
2022/08/28 10:20:37;;;;;;;3.55;0.85;;;22.10;99.50;;;;;;5073357;28;20387;-40
2022/08/28 10:23:16;;;;;;;4.15;0.73;;;22.20;99.20;;;;;;5069117;28;20079;-38
2022/08/28 10:25:48;;;;;;;4.72;0.90;;;22.00;99.40;;;;;;5068408;28;20472;-36
2022/08/28 10:28:30;;;;;;;2.00;1.10;;;21.70;99.40;;;;;;5065139;28;20024;-40
2022/08/28 10:31:17;;;;;;;3.30;0.90;;;21.50;99.70;;;;;;5068585;28;20491;-39
2022/08/28 10:33:42;;;;;;;;;;;21.20;99.90;;;;;;5068724;28;20029;-39
2022/08/28 10:36:23;;;;;;;1.17;0.90;;;20.80;99.90;;;;;;5064673;28;20369;-39
2022/08/28 10:39:14;;;;;;;3.60;1.00;;;20.90;99.90;;;;;;5072223;28;20028;-37
2022/08/28 10:41:43;;;;;;;2.63;0.70;;;21.50;99.90;;;;;;5069771;28;20036;-38
2022/08/28 10:44:14;;;;;;;2.85;1.00;;;21.70;99.40;;;;;;5067561;28;20468;-40
2022/08/28 10:47:08;;;;;;;1.30;0.82;;;21.70;99.40;;;;;;5067064;28;20168;-37
2022/08/28 10:49:40;;;;;;;3.63;0.82;;;21.90;99.10;;;;;;5067500;28;20107;-39
2022/08/28 10:52:27;;;;;;;0.70;0.65;;;22.20;99.60;;;;;;5069976;28;20012;-36
2022/08/28 10:55:00;;;;;;;8.70;1.30;;;22.50;99.00;;;;;;5076859;28;20461;-41
2022/08/28 10:57:54;;;;;;;1.85;0.63;;;22.80;98.00;;;;;;5065304;28;20033;-39
2022/08/28 11:00:22;;;;;;;4.55;1.05;;;22.90;97.90;;;;;;5055132;28;20079;-40
2022/08/28 11:02:59;;;;;;;0.85;0.80;;;22.80;97.80;;;;;;5070351;28;20024;-40
2022/08/28 11:05:33;;;;;;;1.95;0.98;;;22.90;98.00;;;;;;5065023;28;20040;-41
2022/08/28 11:08:04;;;;;;;3.78;0.50;;;22.70;97.60;;;;;;5071406;28;20488;-37
2022/08/28 11:10:33;;;;;;;2.05;0.90;;;22.70;97.60;;;;;;5065067;28;20376;-38
2022/08/28 11:13:01;;;;;;;2.92;1.00;;;22.80;97.90;;;;;;5068772;28;20571;-38
2022/08/28 11:15:27;;;;;;;3.53;0.70;;;22.80;98.10;;;;;;5062734;28;20472;-38
2022/08/28 11:18:12;;;;;;;1.17;1.05;;;22.70;98.30;;;;;;5065089;28;20035;-40
2022/08/28 11:20:41;;;;;;;2.28;0.85;;;22.70;97.70;;;;;;5071843;28;20103;-40
2022/08/28 11:23:15;;;;;;;3.60;1.05;;;22.40;98.00;;;;;;5067293;28;20024;-38
2022/08/28 11:25:57;;;;;;;1.50;0.60;;;22.40;98.30;;;;;;5067843;28;20036;-40
2022/08/28 11:28:23;;;;;;;1.95;1.38;;;22.50;98.30;;;;;;5067493;28;20024;-40
2022/08/28 11:31:11;;;;;;;1.52;0.85;;;22.80;97.70;;;;;;5068528;28;20381;-38
2022/08/28 11:33:51;;;;;;;3.97;0.88;;;22.40;97.10;;;;;;5063785;28;20480;-45
2022/08/28 11:36:20;;;;;;;1.35;0.73;;;22.40;97.30;;;;;;5066043;28;20037;-40
2022/08/28 11:38:54;;;;;;;2.17;1.10;;;22.40;97.30;;;;;;5069535;28;20377;-39
2022/08/28 11:42:12;;;;;;;0.98;0.60;;;22.60;97.30;;;;;;5066642;28;20033;-41
2022/08/28 11:44:44;;;;;;;3.55;1.10;;;22.60;96.90;;;;;;5030466;28;20052;-39
2022/08/28 11:47:42;;;;;;;2.25;0.85;;;22.80;97.10;;;;;;5065839;28;20511;-40
2022/08/28 11:50:16;;;;;;;2.83;0.90;;;22.60;97.10;;;;;;5071050;28;20048;-38
2022/08/28 11:52:52;;;;;;;1.92;0.75;;;22.60;97.70;;;;;;5069235;28;20078;-45
2022/08/28 11:55:28;;;;;;;1.23;0.63;;;22.90;97.60;;;;;;5065130;28;20550;-44
2022/08/28 11:58:07;;;;;;;2.75;1.00;;;22.80;97.60;;;;;;5059499;28;20051;-40
2022/08/28 12:01:06;;;;;;;3.65;1.33;;;22.40;97.80;;;;;;5065520;28;20112;-41
2022/08/28 12:03:35;;;;;;;7.20;1.63;;;22.20;97.90;;;;;;5064261;28;20504;-39
2022/08/28 12:06:02;;;;;;;1.15;0.75;;;22.40;97.70;;;;;;5068260;28;20039;-38
2022/08/28 12:08:56;;;;;;;1.93;1.07;;;22.70;97.80;;;;;;5068365;28;20372;-39
2022/08/28 12:11:48;;;;;;;4.85;1.20;;;22.70;97.60;;;;;;5057855;28;20365;-42
2022/08/28 12:14:29;;;;;;;4.45;1.40;;;22.20;97.80;;;;;;5062846;28;20496;-38
2022/08/28 12:16:57;;;;;;;2.05;0.85;;;22.10;98.20;;;;;;5058741;28;20012;-41
2022/08/28 12:20:13;;;;;;;1.48;0.93;;;22.40;97.60;;;;;;5060753;28;20028;-39
2022/08/28 12:23:12;;;;;;;0.70;0.60;;;23.00;97.50;;;;;;5038508;28;20492;-42
2022/08/28 12:25:42;;;;;;;5.90;0.75;;;22.80;96.70;;;;;;5063993;28;20120;-40
2022/08/28 12:28:23;;;;;;;1.10;1.00;;;23.00;96.30;;;;;;5068791;28;20028;-40
2022/08/28 12:31:15;;;;;;;3.15;0.73;;;23.30;96.30;;;;;;5069650;28;20031;-38
2022/08/28 12:33:56;;;;;;;2.38;0.82;;;23.50;96.00;;;;;;5063860;28;20499;-40
2022/08/28 12:36:25;;;;;;;0.82;0.55;;;23.50;95.90;;;;;;5063997;28;20502;-39
2022/08/28 12:38:52;;;;;;;1.08;0.80;;;23.10;96.20;;;;;;5064967;28;20027;-39
2022/08/28 12:41:19;;;;;;;2.38;0.90;;;23.00;96.20;;;;;;5062835;28;20024;-39
2022/08/28 12:43:49;;;;;;;4.97;0.82;;;22.80;96.60;;;;;;5057876;28;20017;-37
2022/08/28 12:46:21;;;;;;;2.35;0.88;;;22.80;96.60;;;;;;5051962;28;20021;-33
2022/08/28 12:48:55;;;;;;;0.80;0.40;;;22.90;97.10;;;;;;5061148;28;20089;-38
2022/08/28 12:51:33;;;;;;;1.08;0.30;;;23.00;96.60;;;;;;5069318;28;20032;-32
2022/08/28 12:54:05;;;;;;;1.77;0.98;;;22.90;96.40;;;;;;5060768;28;20475;-33
2022/08/28 12:56:34;;;;;;;5.47;1.25;;;22.80;95.90;;;;;;5059673;28;20075;-31
2022/08/28 12:59:32;;;;;;;2.20;0.70;;;22.90;95.40;;;;;;5062164;28;20520;-32
2022/08/28 13:02:10;;;;;;;1.95;0.80;;;23.30;95.40;;;;;;5058569;28;20051;-35
2022/08/28 13:04:43;;;;;;;2.10;0.60;;;23.40;94.30;;;;;;5066281;28;20568;-31
2022/08/28 13:07:12;;;;;;;1.70;0.98;;;23.50;94.80;;;;;;5050907;28;20499;-35
2022/08/28 13:09:47;;;;;;;2.58;0.77;;;23.60;93.50;;;;;;5056935;28;20028;-30
2022/08/28 13:12:35;;;;;;;0.60;0.60;;;23.40;94.10;;;;;;5054768;28;20064;-33
2022/08/28 13:15:01;;;;;;;0.50;0.50;;;23.50;93.70;;;;;;5061843;28;20531;-33
2022/08/28 13:17:47;;;;;;;2.22;0.90;;;23.60;93.50;;;;;;5059852;28;20020;-34
2022/08/28 13:20:28;;;;;;;1.38;0.45;;;23.60;93.90;;;;;;5057461;28;20033;-34
2022/08/28 13:22:54;;;;;;;2.42;1.05;;;23.40;93.60;;;;;;5059670;28;20043;-34